Aviation Digital Data Service (ADDS)

Output produced by METARs form (0712 UTC 24 June 2018)
found at http://www.aviationweather.gov/adds/metars/
 
METAR text: EFUT 240650Z AUTO 33005KT 280V030 CAVOK 16/06 Q1011
Conditions at: EFUT (UTTI (FIN-AFB) , FI) observed 0650 UTC 24 June 2018
Temperature: 16.0°C (61°F)
Dewpoint: 6.0°C (43°F) [RH = 51%]
Pressure (altimeter): 29.85 inches Hg (1011.0 mb)
Winds: from the NNW (330 degrees) at 6 MPH (5 knots; 2.6 m/s)
Visibility: 6 or more miles (10+ km)
Ceiling: ceiling and visibility are OK
Clouds: unknown
Weather: no significant weather observed at this time